Brownsville, WI (53006)

5:50 PM CDT on August 24, 2016 (GMT -0500)
Farmersville, WI | | Change Station

Elev 961 ft 43.56 °N, 88.54 °W | Updated 10 seconds ago

Overcast
Overcast
79.5 °F
Feels Like 84 °F
N
2.7
Wind Variable Wind from SW
Gusts 4.9 mph

Today
High -- | Low -- °F
--% Chance of Precip.
Yesterday
High -- | Low -- °F
Precip. -- in
Pressure 29.89 in
Visibility 10.0 miles
Clouds Few 2300 ft
Mostly Cloudy 3900 ft
Overcast 4900 ft
Heat Index 84 °F
Dew Point 75 °F
Humidity 86%
Rainfall 0.46 in
Snow Depth Not available.
6:09 AM 7:42 PM
Waning Gibbous, 52% visible
METAR KFLD 242153Z AUTO 27010KT 10SM FEW023 BKN039 OVC049 27/22 A2990 RMK AO2 SLP121 T02670217
Pressure 29.89 in
Visibility 10.0 miles
Clouds Few 2300 ft
Mostly Cloudy 3900 ft
Overcast 4900 ft
Heat Index 84 °F
Dew Point 75 °F
Humidity 86%
Rainfall 0.46 in
Snow Depth Not available.
6:09 AM 7:42 PM
Waning Gibbous, 52% visible
METAR KFLD 242153Z AUTO 27010KT 10SM FEW023 BKN039 OVC049 27/22 A2990 RMK AO2 SLP121 T02670217

10-Day Weather Forecast

Almanac

Astronomy

Aug. 24, 2016 Rise Set
Actual Time
Civil Twilight
Nautical Twilight
Astronomical Twilight
Moon
Length of Visible Light
Length of Day
Tomorrow will be .
, % of the Moon is Illuminated

Today's Extremes

State Highs State Lows

Community

WunderPhotos

Upload Photos

1,934,728 photos uploaded!

WunderBlog® & News

Nearby

Air Quality

  Air Quality AQ Index Pollutant
Not available.

Snow Depth

Station Depth Elevation

Earthquake Activity

City Distance Mag. Time & Date
Minimum magnitude displayed is 2.5.

Coastal Water Temperatures

Place Temperature

Stations

Nearby Weather Stations

Station Location Temp. Windchill Dew Point Humidity Wind Precip. Elev Updated Type
                   

Watches & Warnings

There are currently no watches in effect.